Terminal Aerodrome Forecast
Issued by NWS

Home | Current Version | Previous Version | Text Only | Print | Product List | Glossary On
Versions: 1 2 3 4 5 6 7 8 9 10 11 12 13 14
000
FTUS45 KREV 041100
TAFMMH
TAF
KMMH 041120Z 0412/0512 VRB06KT P6SM SCT250
     FM042000 12008KT P6SM BKN100
     FM042200 27015G25KT P6SM VCSH SCT070 BKN100
     FM050100 29012KT P6SM SKC
     FM050700 VRB04KT P6SM SKC=

USA.gov is the U.S. government's official web portal to all federal, state and local government web resources and services.